Time;durP1;ratioP1;P1;durP2;ratioP2;P2;SDS_P1;SDS_P2;PMS_P1;PMS_P2;Temp;Humidity;BMP_temperature;BMP_pressure;BME280_temperature;BME280_humidity;BME280_pressure;Samples;Min_cycle;Max_cycle;Signal;HPM_P1;HPM_P2
2023/08/14 00:00:27;;;;;;;0.30;0.30;;;;;;;20.55;62.61;96805.41;10489233;28;20413;-29
2023/08/14 00:05:27;;;;;;;0.30;0.30;;;;;;;20.55;62.70;96807.94;10487365;28;20411;-29
2023/08/14 00:10:28;;;;;;;0.43;0.33;;;;;;;20.54;62.71;96806.25;10489982;28;20491;-29
2023/08/14 00:15:28;;;;;;;0.40;0.40;;;;;;;20.55;62.40;96794.41;10485098;28;20041;-29
2023/08/14 00:20:28;;;;;;;0.30;0.30;;;;;;;20.54;62.32;96773.19;10483650;28;20037;-29
2023/08/14 00:25:29;;;;;;;0.30;0.30;;;;;;;20.54;62.15;96760.47;10486444;28;20045;-29
2023/08/14 00:30:29;;;;;;;0.50;0.50;;;;;;;20.54;62.28;96750.28;10490346;28;20029;-30
2023/08/14 00:35:30;;;;;;;0.40;0.40;;;;;;;20.54;62.32;96732.50;10488998;28;20040;-29
2023/08/14 00:40:30;;;;;;;0.30;0.30;;;;;;;20.53;62.33;96737.56;10488141;28;20494;-29
2023/08/14 00:45:30;;;;;;;0.43;0.43;;;;;;;20.55;62.31;96718.91;10467252;28;20439;-29
2023/08/14 00:50:32;;;;;;;0.20;0.20;;;;;;;20.55;62.16;96700.28;10487317;28;20029;-29
2023/08/14 00:55:32;;;;;;;0.30;0.30;;;;;;;20.53;62.37;96687.56;10497665;28;20128;-29
2023/08/14 01:00:35;;;;;;;0.28;0.28;;;;;;;20.56;62.29;96687.53;10496712;28;20032;-29
2023/08/14 01:05:35;;;;;;;0.50;0.40;;;;;;;20.55;62.33;96696.00;10496477;28;20028;-30
2023/08/14 01:10:58;;;;;;;0.30;0.30;;;;;;;20.56;62.21;96686.69;10498171;28;20249;-27
2023/08/14 01:16:04;;;;;;;0.32;0.32;;;;;;;20.50;62.16;96674.03;10497233;28;20021;-28
2023/08/14 01:21:16;;;;;;;0.50;0.38;;;;;;;20.56;62.17;96672.25;10489553;28;20056;-29
2023/08/14 01:26:17;;;;;;;0.30;0.30;;;;;;;20.56;62.25;96672.25;10484951;28;20071;-29
2023/08/14 01:31:17;;;;;;;0.25;0.25;;;;;;;20.54;62.06;96663.81;10486444;28;20119;-29
2023/08/14 01:36:45;;;;;;;0.40;0.40;;;;;;;20.56;62.15;96669.72;10497498;28;20033;-29
2023/08/14 01:41:59;;;;;;;0.20;0.20;;;;;;;20.49;62.18;96652.84;10495781;28;20336;-29
2023/08/14 01:47:03;;;;;;;0.40;0.40;;;;;;;20.57;62.37;96663.78;10490034;28;20058;-29
2023/08/14 01:52:05;;;;;;;0.20;0.20;;;;;;;20.55;62.15;96657.88;10483755;28;20040;-29
2023/08/14 01:57:05;;;;;;;1.58;0.38;;;;;;;20.56;62.03;96662.09;10482214;28;20067;-29
2023/08/14 02:02:06;;;;;;;0.30;0.30;;;;;;;20.56;61.97;96659.53;10486951;28;20025;-29
2023/08/14 02:07:06;;;;;;;0.30;0.30;;;;;;;20.57;62.16;96668.84;10487881;28;20037;-29
2023/08/14 02:12:07;;;;;;;0.30;0.30;;;;;;;20.57;62.16;96658.69;10495722;28;20380;-28
2023/08/14 02:17:07;;;;;;;0.40;0.40;;;;;;;20.57;62.04;96679.03;10487676;28;20063;-29
2023/08/14 02:22:07;;;;;;;0.30;0.30;;;;;;;20.55;62.13;96668.03;10487381;28;20510;-29
2023/08/14 02:27:08;;;;;;;0.40;0.40;;;;;;;20.57;62.24;96673.13;10489660;28;20071;-29
2023/08/14 02:32:08;;;;;;;0.20;0.20;;;;;;;20.57;62.09;96673.13;10467207;28;20360;-29
2023/08/14 02:37:10;;;;;;;0.30;0.30;;;;;;;20.58;62.02;96669.72;10480925;28;20711;-29
2023/08/14 02:42:17;;;;;;;0.32;0.32;;;;;;;20.57;61.94;96657.84;10485056;28;20065;-29
2023/08/14 02:47:19;;;;;;;0.50;0.22;;;;;;;20.56;62.11;96651.91;10494675;28;20032;-28
2023/08/14 02:52:20;;;;;;;0.30;0.30;;;;;;;20.58;62.11;96657.00;10493607;28;20029;-29
2023/08/14 02:57:20;;;;;;;0.20;0.20;;;;;;;20.58;62.13;96649.38;10493265;28;20282;-29
2023/08/14 03:02:21;;;;;;;0.30;0.30;;;;;;;20.57;61.79;96653.59;10487556;28;20028;-29
2023/08/14 03:07:21;;;;;;;0.40;0.40;;;;;;;20.59;61.91;96666.31;10477904;28;20070;-29
2023/08/14 03:12:21;;;;;;;0.20;0.20;;;;;;;20.58;61.91;96662.09;10486520;28;20383;-29
2023/08/14 03:17:22;;;;;;;0.20;0.20;;;;;;;20.56;61.92;96672.25;10493987;28;20035;-29
2023/08/14 03:22:22;;;;;;;0.30;0.25;;;;;;;20.59;62.10;96686.66;10486176;28;20106;-29
2023/08/14 03:27:22;;;;;;;0.10;0.10;;;;;;;20.59;61.96;96707.88;10493327;28;20040;-29
2023/08/14 03:32:25;;;;;;;0.40;0.40;;;;;;;20.59;62.17;96702.78;10482243;28;20370;-29
2023/08/14 03:37:26;;;;;;;0.30;0.28;;;;;;;20.58;62.37;96716.38;10491411;28;20032;-30
2023/08/14 03:42:26;;;;;;;0.73;0.30;;;;;;;20.57;61.89;96699.38;10481957;28;20020;-29
2023/08/14 03:47:27;;;;;;;0.20;0.20;;;;;;;20.57;62.15;96673.94;10487175;28;20513;-29
2023/08/14 03:52:27;;;;;;;0.30;0.30;;;;;;;20.56;61.91;96662.09;10481148;28;20347;-29
2023/08/14 03:57:28;;;;;;;0.30;0.30;;;;;;;20.57;62.14;96668.03;10477043;28;20025;-29
2023/08/14 04:02:28;;;;;;;0.30;0.30;;;;;;;20.57;61.91;96658.69;10491731;28;20585;-29
2023/08/14 04:07:29;;;;;;;0.20;0.20;;;;;;;20.58;62.08;96660.41;10484473;28;20036;-29
2023/08/14 04:12:29;;;;;;;0.30;0.30;;;;;;;20.57;62.01;96668.03;10483020;28;20058;-29
2023/08/14 04:17:30;;;;;;;0.30;0.30;;;;;;;20.58;62.03;96659.53;10489316;28;20024;-30
2023/08/14 04:22:30;;;;;;;0.30;0.30;;;;;;;20.58;61.92;96645.13;10485975;28;20646;-29
2023/08/14 04:27:31;;;;;;;0.33;0.33;;;;;;;20.58;62.06;96642.59;10485469;28;20287;-29
2023/08/14 04:32:32;;;;;;;0.22;0.20;;;;;;;20.54;61.92;96628.19;10486343;28;20491;-29
2023/08/14 04:37:33;;;;;;;0.30;0.30;;;;;;;20.59;61.99;96634.09;10491229;28;20032;-29
2023/08/14 04:42:33;;;;;;;0.40;0.40;;;;;;;20.59;61.83;96630.69;10489745;28;20021;-29
2023/08/14 04:47:34;;;;;;;0.30;0.30;;;;;;;20.59;61.78;96611.22;10473080;28;20287;-29
2023/08/14 04:52:35;;;;;;;0.30;0.30;;;;;;;20.59;61.71;96611.22;10476288;28;20024;-29
2023/08/14 04:57:35;;;;;;;0.37;0.37;;;;;;;20.60;61.96;96609.50;10476235;28;20033;-29
2023/08/14 05:02:41;;;;;;;0.30;0.30;;;;;;;20.58;61.99;96594.25;10484637;28;20295;-29
2023/08/14 05:07:42;;;;;;;0.35;0.25;;;;;;;20.56;61.64;96585.78;10481872;28;20027;-29
2023/08/14 05:12:42;;;;;;;0.40;0.40;;;;;;;20.59;61.72;96588.31;10488746;28;20039;-29
2023/08/14 05:17:42;;;;;;;0.40;0.40;;;;;;;20.59;61.78;96590.84;10476148;28;20286;-29
2023/08/14 05:22:43;;;;;;;0.35;0.35;;;;;;;20.59;61.77;96585.78;10478397;28;20468;-30
2023/08/14 05:27:44;;;;;;;0.28;0.28;;;;;;;20.54;61.74;96577.34;10489928;28;20031;-30
2023/08/14 05:32:46;;;;;;;0.30;0.30;;;;;;;20.59;61.94;96583.22;10488959;28;20629;-29
2023/08/14 05:37:46;;;;;;;0.40;0.40;;;;;;;20.60;62.04;96577.28;10497532;28;20626;-29
2023/08/14 05:43:06;;;;;;;0.37;0.30;;;;;;;20.59;61.69;96565.41;10493266;28;20032;-29
2023/08/14 05:48:07;;;;;;;0.43;0.43;;;;;;;20.59;61.67;96573.06;10480667;28;20457;-29
2023/08/14 05:53:08;;;;;;;0.40;0.38;;;;;;;20.60;61.79;96567.09;10483245;28;20060;-28
2023/08/14 05:58:09;;;;;;;0.32;0.32;;;;;;;20.61;61.78;96566.25;10479969;28;20086;-29
2023/08/14 06:03:09;;;;;;;0.30;0.30;;;;;;;20.56;61.72;96562.06;10496321;28;20024;-30
2023/08/14 06:08:09;;;;;;;0.57;0.50;;;;;;;20.60;61.64;96562.00;10488045;28;20483;-29
2023/08/14 06:13:10;;;;;;;0.40;0.40;;;;;;;20.61;61.60;96558.59;10495972;28;20567;-30
2023/08/14 06:18:10;;;;;;;0.40;0.40;;;;;;;20.61;61.80;96563.69;10482648;28;20032;-29
2023/08/14 06:23:10;;;;;;;0.50;0.50;;;;;;;20.63;61.80;96561.97;10493181;28;20287;-29
2023/08/14 06:28:11;;;;;;;0.13;0.13;;;;;;;20.62;61.89;96565.38;10487679;28;20045;-29
2023/08/14 06:33:11;;;;;;;0.32;0.32;;;;;;;20.61;61.72;96557.75;10487972;28;20051;-29
2023/08/14 06:38:12;;;;;;;0.30;0.30;;;;;;;20.62;61.82;96560.28;10495013;28;20036;-29
2023/08/14 06:43:12;;;;;;;0.40;0.40;;;;;;;20.62;61.65;96550.13;10486574;28;20041;-28
2023/08/14 06:48:13;;;;;;;0.40;0.40;;;;;;;20.61;61.88;96553.53;10484668;28;20486;-30
2023/08/14 06:53:14;;;;;;;0.38;0.38;;;;;;;20.62;61.74;96554.38;10494353;28;21008;-29
2023/08/14 06:58:14;;;;;;;0.40;0.30;;;;;;;20.63;61.97;96556.88;10491755;28;20032;-29
2023/08/14 07:03:14;;;;;;;0.30;0.30;;;;;;;20.62;61.72;96554.38;10485839;28;20032;-29
2023/08/14 07:08:15;;;;;;;0.30;0.30;;;;;;;20.63;61.88;96556.06;10472775;28;20043;-29
2023/08/14 07:13:15;;;;;;;0.40;0.40;;;;;;;20.61;62.08;96548.44;10485137;28;20048;-30
2023/08/14 07:18:20;;;;;;;0.45;0.30;;;;;;;20.60;61.92;96551.84;10487492;28;20110;-29
2023/08/14 07:23:21;;;;;;;0.50;0.50;;;;;;;20.61;61.81;96557.75;10485442;28;20101;-29
2023/08/14 07:28:21;;;;;;;0.55;0.55;;;;;;;20.63;62.07;96561.97;10487005;28;20476;-29
2023/08/14 07:33:21;;;;;;;0.53;0.53;;;;;;;20.63;62.03;96577.22;10477797;28;20479;-29
2023/08/14 07:38:22;;;;;;;0.50;0.50;;;;;;;20.62;61.95;96575.56;10477801;28;20024;-29
2023/08/14 07:43:23;;;;;;;0.50;0.50;;;;;;;20.63;61.98;96587.41;10484885;28;20036;-29
2023/08/14 07:48:23;;;;;;;0.38;0.32;;;;;;;20.64;62.26;96596.72;10484890;28;20499;-29
2023/08/14 07:53:23;;;;;;;0.50;0.50;;;;;;;20.64;62.03;96599.25;10484076;28;20037;-30
2023/08/14 07:58:25;;;;;;;0.80;0.50;;;;;;;20.64;61.95;96609.44;10485698;28;20032;-28
2023/08/14 08:03:25;;;;;;;0.40;0.40;;;;;;;20.64;62.27;96614.53;10483993;28;20275;-30
2023/08/14 08:08:26;;;;;;;0.40;0.40;;;;;;;20.61;61.96;96603.53;10468262;28;20037;-29
2023/08/14 08:13:26;;;;;;;0.30;0.30;;;;;;;20.65;62.28;96616.22;10491354;28;20303;-29
2023/08/14 08:18:27;;;;;;;0.40;0.40;;;;;;;20.60;62.14;96601.84;10484446;28;20098;-28
2023/08/14 08:23:27;;;;;;;0.50;0.40;;;;;;;20.64;62.26;96624.69;10477629;28;20048;-29
2023/08/14 08:28:27;;;;;;;0.47;0.47;;;;;;;20.60;62.36;96607.81;10492079;28;20051;-30
2023/08/14 08:33:28;;;;;;;0.30;0.30;;;;;;;20.63;62.35;96604.38;10487830;28;20055;-29
2023/08/14 08:38:28;;;;;;;0.50;0.50;;;;;;;20.64;62.28;96617.06;10491319;28;20036;-29
2023/08/14 08:43:31;;;;;;;0.30;0.30;;;;;;;20.64;62.27;96609.44;10475262;28;20098;-29
2023/08/14 08:48:33;;;;;;;0.30;0.30;;;;;;;20.65;61.83;96608.56;10474857;28;20434;-29
2023/08/14 08:53:35;;;;;;;0.50;0.50;;;;;;;20.65;62.16;96605.22;10482551;28;20041;-29
2023/08/14 08:58:35;;;;;;;0.38;0.38;;;;;;;20.64;62.15;96609.44;10488834;28;20090;-29
2023/08/14 09:03:36;;;;;;;0.30;0.30;;;;;;;20.64;62.08;96614.53;10496945;28;20478;-29
2023/08/14 09:08:36;;;;;;;0.40;0.40;;;;;;;20.65;62.34;96610.28;10494079;28;20036;-29
2023/08/14 09:13:37;;;;;;;0.40;0.30;;;;;;;20.65;62.39;96616.22;10481796;28;20291;-29
2023/08/14 09:18:37;;;;;;;0.40;0.40;;;;;;;20.67;62.17;96614.50;10480594;28;20494;-29
2023/08/14 09:23:39;;;;;;;0.30;0.30;;;;;;;20.66;62.46;96625.56;10490213;28;20029;-28
2023/08/14 09:28:39;;;;;;;0.30;0.30;;;;;;;20.68;62.19;96644.19;10482914;28;20156;-29
2023/08/14 09:33:42;;;;;;;0.50;0.40;;;;;;;20.68;62.15;96651.81;10495878;28;20032;-29
2023/08/14 09:38:43;;;;;;;0.40;0.40;;;;;;;20.65;62.37;96667.09;10491610;28;20036;-29
2023/08/14 09:43:44;;;;;;;0.45;0.45;;;;;;;20.69;62.44;96686.56;10487827;28;20039;-29
2023/08/14 09:48:46;;;;;;;0.50;0.50;;;;;;;20.69;62.34;96689.13;10482929;28;20029;-30
2023/08/14 09:53:56;;;;;;;0.40;0.40;;;;;;;20.64;62.37;96685.75;10468748;28;20043;-29
2023/08/14 09:58:56;;;;;;;0.40;0.40;;;;;;;20.64;62.37;96683.22;10477963;28;20032;-29
2023/08/14 10:03:58;;;;;;;0.50;0.40;;;;;;;20.65;62.51;96679.81;10483868;28;20487;-29
2023/08/14 10:08:59;;;;;;;0.30;0.30;;;;;;;20.71;62.18;96697.56;10493581;28;20462;-29
2023/08/14 10:14:04;;;;;;;0.32;0.32;;;;;;;20.71;62.41;96701.84;10495817;28;20111;-29
2023/08/14 10:19:12;;;;;;;0.50;0.50;;;;;;;20.70;62.67;96710.28;10474519;28;20513;-30
2023/08/14 10:24:12;;;;;;;0.47;0.47;;;;;;;20.71;62.41;96715.38;10487781;28;20029;-29
2023/08/14 10:29:13;;;;;;;0.30;0.30;;;;;;;20.67;62.46;96700.16;10484404;28;20419;-29
2023/08/14 10:34:16;;;;;;;0.35;0.35;;;;;;;20.69;62.66;96699.28;10490951;28;20144;-29
2023/08/14 10:39:16;;;;;;;0.40;0.40;;;;;;;20.69;62.28;96696.75;10492785;28;20490;-29
2023/08/14 10:44:17;;;;;;;0.60;0.40;;;;;;;20.69;62.43;96699.28;10478720;28;20032;-29
2023/08/14 10:49:18;;;;;;;0.30;0.30;;;;;;;20.68;62.54;96682.34;10486929;28;20044;-29
2023/08/14 10:54:18;;;;;;;0.28;0.28;;;;;;;20.68;62.52;96687.44;10484597;28;20483;-29
2023/08/14 10:59:20;;;;;;;0.63;0.20;;;;;;;20.68;62.33;96679.81;10491424;28;20032;-29
2023/08/14 11:04:20;;;;;;;0.30;0.30;;;;;;;20.69;62.47;96678.09;10494833;28;20101;-29
2023/08/14 11:09:22;;;;;;;0.30;0.30;;;;;;;20.70;62.66;96678.06;10481245;28;20102;-29
2023/08/14 11:14:22;;;;;;;0.38;0.38;;;;;;;20.70;62.62;96669.59;10494105;28;20039;-28
2023/08/14 11:19:23;;;;;;;0.40;0.40;;;;;;;20.70;62.63;96665.34;10472767;28;20430;-28
2023/08/14 11:24:24;;;;;;;0.50;0.50;;;;;;;20.72;62.34;96673.81;10485042;28;20049;-30
2023/08/14 11:29:24;;;;;;;0.40;0.40;;;;;;;20.72;62.61;96666.19;10486602;28;20044;-29
2023/08/14 11:34:24;;;;;;;0.50;0.50;;;;;;;20.72;62.51;96658.53;10492911;28;20044;-29
2023/08/14 11:39:25;;;;;;;0.50;0.50;;;;;;;20.72;62.40;96653.47;10476078;28;20032;-29
2023/08/14 11:44:27;;;;;;;0.40;0.40;;;;;;;20.72;62.55;96653.47;10476771;28;20270;-29
2023/08/14 11:49:31;;;;;;;0.30;0.30;;;;;;;20.72;62.53;96643.28;10481406;28;20029;-29
2023/08/14 11:54:32;;;;;;;0.40;0.40;;;;;;;20.73;62.53;96644.97;10475907;28;20063;-29
2023/08/14 11:59:32;;;;;;;0.22;0.20;;;;;;;20.73;62.77;96634.78;10482692;28;20037;-29
2023/08/14 12:04:34;;;;;;;0.43;0.35;;;;;;;20.71;62.67;96621.25;10492352;28;20032;-29
2023/08/14 12:09:37;;;;;;;0.50;0.50;;;;;;;20.73;62.66;96624.59;10482941;28;20093;-29
2023/08/14 12:14:44;;;;;;;0.40;0.40;;;;;;;20.73;62.76;96609.34;10486186;28;20116;-30
2023/08/14 12:19:52;;;;;;;0.57;0.50;;;;;;;20.68;62.57;96598.38;10483744;28;20039;-29
2023/08/14 12:24:54;;;;;;;0.50;0.50;;;;;;;20.72;62.49;96607.66;10483501;28;20043;-30
2023/08/14 12:29:55;;;;;;;0.35;0.35;;;;;;;20.73;62.55;96599.16;10481668;28;20036;-29
2023/08/14 12:34:56;;;;;;;0.50;0.40;;;;;;;20.71;62.55;96595.81;10479197;28;20044;-29
2023/08/14 12:39:56;;;;;;;0.50;0.50;;;;;;;20.74;62.68;96605.97;10483135;28;20473;-28
2023/08/14 12:44:57;;;;;;;0.47;0.47;;;;;;;20.74;62.72;96610.19;10477062;28;20032;-29
2023/08/14 12:49:57;;;;;;;1.50;0.47;;;;;;;20.74;62.81;96611.06;10469603;28;20064;-28
2023/08/14 12:55:00;;;;;;;0.30;0.30;;;;;;;20.75;62.83;96610.19;10467738;28;20037;-29
2023/08/14 13:00:00;;;;;;;0.40;0.40;;;;;;;20.75;62.60;96601.69;10484996;28;20040;-29
2023/08/14 13:05:01;;;;;;;0.55;0.50;;;;;;;20.73;62.61;96594.06;10482665;28;20021;-29
2023/08/14 13:10:02;;;;;;;0.50;0.50;;;;;;;20.72;62.75;96622.94;10484769;28;20028;-30
2023/08/14 13:15:02;;;;;;;0.30;0.30;;;;;;;20.73;62.79;96589.00;10482250;28;20070;-29
2023/08/14 13:20:03;;;;;;;0.85;0.50;;;;;;;20.74;62.69;96595.78;10487384;28;20028;-29
2023/08/14 13:25:04;;;;;;;0.50;0.38;;;;;;;20.74;62.83;96611.06;10487030;28;20032;-29
2023/08/14 13:30:05;;;;;;;0.47;0.40;;;;;;;20.74;62.74;96618.69;10487929;28;20036;-29
2023/08/14 13:35:06;;;;;;;1.20;0.45;;;;;;;20.75;62.45;96606.78;10467465;28;20029;-28
2023/08/14 13:40:07;;;;;;;0.40;0.40;;;;;;;20.75;62.59;96596.63;10469738;28;20071;-29
2023/08/14 13:45:08;;;;;;;0.47;0.47;;;;;;;20.74;62.81;96588.16;10481720;28;20040;-29
2023/08/14 13:50:08;;;;;;;0.40;0.40;;;;;;;20.76;62.58;96600.84;10489377;28;20043;-30
2023/08/14 13:55:09;;;;;;;0.40;0.40;;;;;;;20.75;62.80;96597.47;10486624;28;20041;-30
2023/08/14 14:00:10;;;;;;;0.40;0.40;;;;;;;20.73;62.54;96591.53;10491859;28;20398;-29
2023/08/14 14:05:11;;;;;;;0.40;0.40;;;;;;;20.72;62.64;96577.13;10472502;28;20105;-29
2023/08/14 14:10:11;;;;;;;0.40;0.40;;;;;;;20.76;62.42;96583.88;10496495;28;20141;-29
2023/08/14 14:15:12;;;;;;;0.40;0.40;;;;;;;20.76;62.49;96573.72;10492212;28;20407;-29
2023/08/14 14:20:12;;;;;;;0.37;0.33;;;;;;;20.75;62.80;96566.94;10487877;28;20035;-28
2023/08/14 14:25:13;;;;;;;0.30;0.30;;;;;;;20.76;62.51;96561.00;10494674;28;20676;-30
2023/08/14 14:30:13;;;;;;;0.45;0.40;;;;;;;20.76;62.70;96566.06;10487008;28;20032;-30
2023/08/14 14:35:13;;;;;;;0.60;0.43;;;;;;;20.77;62.75;96557.56;10495589;28;20478;-29
2023/08/14 14:40:14;;;;;;;0.40;0.40;;;;;;;20.77;62.51;96549.94;10489978;28;20059;-29
2023/08/14 14:45:14;;;;;;;0.32;0.32;;;;;;;20.77;62.60;96544.00;10492938;28;20089;-29
2023/08/14 14:50:15;;;;;;;0.70;0.50;;;;;;;20.74;62.63;96538.97;10494776;28;20021;-29
2023/08/14 14:55:15;;;;;;;0.40;0.40;;;;;;;20.77;62.76;96534.69;10492009;28;20803;-29
2023/08/14 15:00:16;;;;;;;0.50;0.50;;;;;;;20.79;62.70;96532.13;10492368;28;20430;-29
2023/08/14 15:05:17;;;;;;;0.40;0.40;;;;;;;20.80;62.76;96531.25;10489211;28;20419;-29
2023/08/14 15:10:17;;;;;;;0.40;0.40;;;;;;;20.79;62.78;96527.88;10490285;28;20056;-29
2023/08/14 15:15:21;;;;;;;0.65;0.45;;;;;;;20.78;62.54;96521.09;10485821;28;20024;-29
2023/08/14 15:20:22;;;;;;;0.40;0.40;;;;;;;20.78;63.02;96516.00;10491769;28;20028;-30
2023/08/14 15:25:23;;;;;;;0.33;0.33;;;;;;;20.78;62.79;96505.81;10484309;28;20406;-28
2023/08/14 15:30:23;;;;;;;0.40;0.40;;;;;;;20.81;62.69;96504.94;10488501;28;20250;-29
2023/08/14 15:35:23;;;;;;;0.60;0.50;;;;;;;20.81;62.80;96508.31;10473971;28;20513;-30
2023/08/14 15:40:24;;;;;;;0.33;0.30;;;;;;;20.81;62.78;96504.94;10492605;28;20414;-29
2023/08/14 15:45:24;;;;;;;0.50;0.38;;;;;;;20.81;62.53;96494.78;10478591;28;20345;-29
2023/08/14 15:50:25;;;;;;;0.35;0.35;;;;;;;20.80;62.75;96499.00;10480141;28;20031;-35
2023/08/14 15:55:25;;;;;;;0.40;0.33;;;;;;;20.81;62.93;96494.78;10489967;28;20040;-29
2023/08/14 16:00:28;;;;;;;0.60;0.60;;;;;;;20.79;62.89;96496.50;10489023;28;20029;-29
2023/08/14 16:05:31;;;;;;;0.40;0.40;;;;;;;20.80;62.90;96496.47;10483349;28;20059;-29
2023/08/14 16:10:31;;;;;;;0.45;0.45;;;;;;;20.80;62.71;96493.91;10491352;28;20144;-29
2023/08/14 16:15:31;;;;;;;0.50;0.50;;;;;;;20.80;62.81;96493.91;10489147;28;20558;-29
2023/08/14 16:20:34;;;;;;;0.40;0.40;;;;;;;20.80;62.86;96491.38;10485264;28;20502;-29
2023/08/14 16:25:34;;;;;;;0.50;0.40;;;;;;;20.80;62.58;96491.38;10488016;28;20421;-30
2023/08/14 16:30:35;;;;;;;0.30;0.30;;;;;;;20.80;62.51;96493.91;10480043;28;20033;-30
2023/08/14 16:35:35;;;;;;;0.38;0.35;;;;;;;20.80;62.73;96481.19;10480407;28;20041;-29
2023/08/14 16:40:43;;;;;;;0.53;0.53;;;;;;;20.80;62.64;96473.56;10484556;28;20093;-29
2023/08/14 16:45:48;;;;;;;0.43;0.43;;;;;;;20.82;62.85;96471.84;10490826;28;20036;-30
2023/08/14 16:50:49;;;;;;;0.53;0.30;;;;;;;20.82;62.62;96471.84;10492267;28;20058;-29
2023/08/14 16:55:52;;;;;;;0.60;0.60;;;;;;;20.81;62.93;96462.53;10483719;28;20031;-29
2023/08/14 17:00:53;;;;;;;0.40;0.40;;;;;;;20.82;62.83;96476.91;10491670;28;20116;-29
2023/08/14 17:06:04;;;;;;;0.52;0.45;;;;;;;20.84;62.88;96482.84;10477964;28;20477;-29
2023/08/14 17:11:05;;;;;;;0.50;0.40;;;;;;;20.84;62.91;96482.84;10490600;28;20595;-29
2023/08/14 17:16:09;;;;;;;0.55;0.55;;;;;;;20.86;62.89;96493.03;10479037;28;20449;-29
2023/08/14 17:21:09;;;;;;;0.35;0.35;;;;;;;20.85;63.13;96489.63;10490990;28;20491;-28
2023/08/14 17:26:10;;;;;;;0.40;0.40;;;;;;;20.84;62.83;96500.66;10494131;28;20037;-30
2023/08/14 17:31:10;;;;;;;0.30;0.30;;;;;;;20.85;62.66;96507.44;10497837;28;20044;-29
2023/08/14 17:36:10;;;;;;;0.40;0.40;;;;;;;20.84;62.60;96502.34;10496544;28;20422;-30
2023/08/14 17:41:11;;;;;;;0.40;0.33;;;;;;;20.85;62.72;96504.91;10487452;28;20509;-29
2023/08/14 17:46:12;;;;;;;0.40;0.40;;;;;;;20.83;62.84;96509.16;10473475;28;20287;-29
2023/08/14 17:51:12;;;;;;;0.43;0.43;;;;;;;20.84;63.03;96513.38;10489790;28;20556;-30
2023/08/14 17:56:13;;;;;;;0.40;0.40;;;;;;;20.85;62.79;96507.44;10494596;28;20290;-29
2023/08/14 18:01:13;;;;;;;0.47;0.47;;;;;;;20.85;62.63;96520.16;10496273;28;20048;-30
2023/08/14 18:06:14;;;;;;;0.40;0.40;;;;;;;20.84;62.75;96515.09;10483167;28;20297;-28
2023/08/14 18:11:17;;;;;;;0.50;0.50;;;;;;;20.84;62.90;96518.47;10496628;28;20035;-29
2023/08/14 18:16:17;;;;;;;0.50;0.50;;;;;;;20.83;62.71;96524.44;10495626;28;20032;-30
2023/08/14 18:21:18;;;;;;;0.50;0.50;;;;;;;20.85;62.74;96525.25;10496052;28;20033;-29
2023/08/14 18:26:18;;;;;;;0.60;0.60;;;;;;;20.85;62.74;96539.66;10494233;28;20031;-29
2023/08/14 18:31:18;;;;;;;0.50;0.40;;;;;;;20.84;62.65;96536.28;10495463;28;20456;-29
2023/08/14 18:36:19;;;;;;;0.60;0.53;;;;;;;20.81;62.59;96535.50;10487802;28;20037;-29
2023/08/14 18:41:19;;;;;;;0.20;0.20;;;;;;;20.85;62.81;96553.25;10478793;28;20036;-29
2023/08/14 18:46:20;;;;;;;0.23;0.20;;;;;;;20.85;62.92;96554.94;10495278;28;20054;-29
2023/08/14 18:51:20;;;;;;;0.40;0.40;;;;;;;20.81;62.72;96555.84;10488156;28;20297;-29
2023/08/14 18:56:20;;;;;;;0.40;0.40;;;;;;;20.86;62.81;96566.81;10494651;28;20390;-29
2023/08/14 19:01:21;;;;;;;0.40;0.40;;;;;;;20.84;62.65;96571.91;10491051;28;20453;-29
2023/08/14 19:06:21;;;;;;;0.40;0.40;;;;;;;20.85;62.56;96583.78;10493356;28;20028;-29
2023/08/14 19:11:23;;;;;;;0.50;0.40;;;;;;;20.81;62.56;96568.56;10481860;28;20301;-29
2023/08/14 19:16:23;;;;;;;0.40;0.40;;;;;;;20.85;62.62;96576.16;10493986;28;20671;-29
2023/08/14 19:21:23;;;;;;;0.50;0.40;;;;;;;20.83;62.46;96560.06;10481181;28;20055;-29
2023/08/14 19:26:24;;;;;;;0.40;0.40;;;;;;;20.87;62.74;96560.91;10493551;28;20025;-29
2023/08/14 19:31:25;;;;;;;0.30;0.30;;;;;;;20.86;62.88;96552.41;10489134;28;20039;-29
2023/08/14 19:36:25;;;;;;;0.40;0.40;;;;;;;20.88;62.70;96563.41;10490491;28;20490;-29
2023/08/14 19:41:26;;;;;;;0.40;0.40;;;;;;;20.90;62.70;96565.94;10476411;28;20036;-29
2023/08/14 19:46:26;;;;;;;0.40;0.37;;;;;;;20.87;62.67;96577.00;10483972;28;20039;-29
2023/08/14 19:51:27;;;;;;;0.40;0.40;;;;;;;20.87;62.63;96592.25;10492982;28;20746;-29
2023/08/14 19:56:27;;;;;;;0.37;0.37;;;;;;;20.88;62.64;96595.66;10490748;28;20043;-29
2023/08/14 20:01:27;;;;;;;0.43;0.43;;;;;;;20.88;62.63;96623.66;10492400;28;20778;-29
2023/08/14 20:06:28;;;;;;;0.43;0.43;;;;;;;20.86;62.72;96641.47;10488984;28;20033;-29
2023/08/14 20:11:28;;;;;;;0.37;0.37;;;;;;;20.87;62.51;96638.06;10491304;28;20036;-30
2023/08/14 20:16:29;;;;;;;0.30;0.30;;;;;;;20.87;62.55;96627.91;10485761;28;20247;-29
2023/08/14 20:21:30;;;;;;;0.50;0.40;;;;;;;20.81;62.62;96630.47;10489722;28;20039;-29
2023/08/14 20:26:30;;;;;;;0.50;0.50;;;;;;;20.85;62.51;96634.69;10490607;28;20037;-29
2023/08/14 20:31:31;;;;;;;0.60;0.47;;;;;;;20.87;62.66;96638.06;10476758;28;20472;-29
2023/08/14 20:36:31;;;;;;;0.30;0.30;;;;;;;20.88;62.54;96649.13;10483031;28;20441;-29
2023/08/14 20:41:31;;;;;;;0.30;0.30;;;;;;;20.89;62.40;96658.44;10482706;28;20040;-29
2023/08/14 20:46:32;;;;;;;0.97;0.57;;;;;;;20.87;62.33;96658.44;10491532;28;20524;-29
2023/08/14 20:51:32;;;;;;;0.43;0.43;;;;;;;20.89;62.64;96673.69;10489134;28;20290;-29
2023/08/14 20:56:32;;;;;;;0.37;0.37;;;;;;;20.89;62.35;96696.59;10487131;28;20040;-29
2023/08/14 21:01:33;;;;;;;0.60;0.60;;;;;;;20.88;62.53;96688.09;10498975;28;20040;-29
2023/08/14 21:06:33;;;;;;;0.52;0.52;;;;;;;20.89;62.59;96687.25;10490765;28;20306;-29
2023/08/14 21:11:34;;;;;;;0.50;0.50;;;;;;;20.87;62.67;96683.88;10483394;28;20571;-29
2023/08/14 21:16:34;;;;;;;0.50;0.50;;;;;;;20.88;62.51;96695.75;10493855;28;20498;-29
2023/08/14 21:21:34;;;;;;;0.30;0.30;;;;;;;20.86;62.38;96682.19;10490164;28;20036;-29
2023/08/14 21:26:36;;;;;;;0.30;0.30;;;;;;;20.88;62.19;96679.66;10491657;28;20060;-29
2023/08/14 21:31:36;;;;;;;0.32;0.32;;;;;;;20.87;62.38;96668.63;10494193;28;20092;-29
2023/08/14 21:36:36;;;;;;;0.50;0.50;;;;;;;20.85;62.38;96657.56;10497823;28;20101;-29
2023/08/14 21:41:37;;;;;;;0.50;0.50;;;;;;;20.88;62.31;96654.19;10493528;28;20101;-29
2023/08/14 21:46:37;;;;;;;0.70;0.57;;;;;;;20.88;62.40;96649.13;10489533;28;20078;-29
2023/08/14 21:51:37;;;;;;;0.57;0.57;;;;;;;20.89;62.52;96656.72;10490813;28;20032;-29
2023/08/14 21:56:38;;;;;;;0.50;0.30;;;;;;;20.89;62.18;96651.63;10495558;28;20045;-29
2023/08/14 22:01:38;;;;;;;0.33;0.33;;;;;;;20.86;62.27;96646.56;10486591;28;20722;-29
2023/08/14 22:06:39;;;;;;;0.40;0.40;;;;;;;20.90;62.31;96657.56;10497131;28;20031;-29
2023/08/14 22:11:39;;;;;;;0.43;0.43;;;;;;;20.89;62.25;96661.78;10492838;28;20033;-30
2023/08/14 22:16:39;;;;;;;0.33;0.33;;;;;;;20.90;62.24;96660.94;10485785;28;20291;-29
2023/08/14 22:21:42;;;;;;;0.40;0.40;;;;;;;20.90;62.23;96662.66;10496183;28;20040;-29
2023/08/14 22:26:42;;;;;;;0.30;0.30;;;;;;;20.91;62.35;96660.09;10492384;28;20475;-29
2023/08/14 22:31:43;;;;;;;0.40;0.37;;;;;;;20.92;62.47;96654.16;10495840;28;20025;-28
2023/08/14 22:36:43;;;;;;;0.50;0.40;;;;;;;20.91;62.48;96670.28;10493187;28;20036;-29
2023/08/14 22:41:43;;;;;;;0.37;0.37;;;;;;;20.89;62.48;96666.88;10495066;28;20040;-29
2023/08/14 22:46:44;;;;;;;0.43;0.43;;;;;;;20.90;62.38;96668.56;10483634;28;20036;-29
2023/08/14 22:51:44;;;;;;;0.32;0.32;;;;;;;20.87;62.33;96663.53;10482709;28;20095;-29
2023/08/14 22:56:44;;;;;;;0.40;0.40;;;;;;;20.91;62.50;96677.91;10495225;28;20507;-29
2023/08/14 23:01:45;;;;;;;0.40;0.40;;;;;;;20.90;62.19;96668.56;10491459;28;20056;-30
2023/08/14 23:06:45;;;;;;;0.30;0.30;;;;;;;20.90;62.41;96668.56;10494629;28;20033;-27
2023/08/14 23:11:45;;;;;;;0.67;0.50;;;;;;;20.90;62.29;96660.94;10490370;28;20046;-28
2023/08/14 23:16:46;;;;;;;0.33;0.33;;;;;;;20.90;62.39;96653.28;10485711;28;20170;-29